Time;durP1;ratioP1;P1;durP2;ratioP2;P2;SDS_P1;SDS_P2;PMS_P1;PMS_P2;Temp;Humidity;BMP_temperature;BMP_pressure;BME280_temperature;BME280_humidity;BME280_pressure;Samples;Min_cycle;Max_cycle;Signal;HPM_P1;HPM_P2
2021/09/19 00:02:10;;;;;;;25.30;22.70;;;;;;;16.44;60.08;99901.54;117304;1186;23812;-62
2021/09/19 00:04:38;;;;;;;27.20;24.30;;;;;;;16.42;60.10;99901.96;117233;1186;23554;-62
2021/09/19 00:07:06;;;;;;;26.00;23.30;;;;;;;16.44;60.15;99898.71;117233;1186;21870;-62
2021/09/19 00:09:37;;;;;;;26.50;23.20;;;;;;;16.46;60.27;99898.96;117243;1186;23576;-62
2021/09/19 00:12:06;;;;;;;26.40;23.70;;;;;;;16.48;60.35;99893.92;117274;1186;23543;-62
2021/09/19 00:14:35;;;;;;;27.60;23.70;;;;;;;16.52;60.37;99896.61;117260;1185;22637;-62
2021/09/19 00:17:05;;;;;;;25.90;23.20;;;;;;;16.57;60.45;99895.31;117288;1182;23557;-62
2021/09/19 00:19:37;;;;;;;26.10;23.30;;;;;;;16.60;60.26;99893.90;117282;1186;23546;-62
2021/09/19 00:22:05;;;;;;;26.60;22.80;;;;;;;16.62;60.35;99888.88;117245;1188;21892;-62
2021/09/19 00:24:33;;;;;;;27.20;23.50;;;;;;;16.62;60.41;99886.23;117246;1184;23801;-62
2021/09/19 00:27:17;;;;;;;27.60;22.80;;;;;;;16.65;60.50;99882.92;117248;1184;23555;-62
2021/09/19 00:30:06;;;;;;;25.60;22.90;;;;;;;16.64;60.55;99879.91;117314;1184;22918;-62
2021/09/19 00:32:35;;;;;;;24.70;22.10;;;;;;;16.68;60.44;99876.75;117355;1186;23619;-62
2021/09/19 00:35:06;;;;;;;26.00;22.40;;;;;;;16.70;60.43;99878.77;117297;1187;21867;-62
2021/09/19 00:37:34;;;;;;;26.60;23.50;;;;;;;16.72;60.50;99878.15;117280;1186;21860;-62
2021/09/19 00:40:04;;;;;;;24.40;21.80;;;;;;;16.74;60.50;99880.02;117237;1186;23567;-62
2021/09/19 00:42:32;;;;;;;24.80;21.90;;;;;;;16.76;60.45;99878.15;117320;1183;21858;-62
2021/09/19 00:45:05;;;;;;;25.20;22.20;;;;;;;16.78;60.29;99884.59;117200;1186;21889;-59
2021/09/19 00:47:34;;;;;;;24.80;22.10;;;;;;;16.69;60.29;99885.70;117255;1185;22639;-59
2021/09/19 00:50:03;;;;;;;25.70;23.00;;;;;;;16.58;60.22;99889.95;117256;1185;21855;-58
2021/09/19 00:52:32;;;;;;;25.70;22.90;;;;;;;16.52;60.14;99891.44;117237;1186;21847;-59
2021/09/19 00:55:00;;;;;;;25.20;22.50;;;;;;;16.48;60.18;99897.30;117155;1188;23553;-59
2021/09/19 00:57:28;;;;;;;26.90;24.00;;;;;;;16.48;60.10;99901.87;117337;1182;22922;-58
2021/09/19 01:00:13;;;;;;;25.90;23.10;;;;;;;16.45;60.09;99899.03;117295;1182;23563;-59
2021/09/19 01:02:42;;;;;;;25.50;22.70;;;;;;;16.38;60.01;99896.84;117289;1182;23542;-58
2021/09/19 01:05:12;;;;;;;25.90;23.00;;;;;;;16.33;60.01;99902.39;117193;1189;21861;-59
2021/09/19 01:07:40;;;;;;;26.20;23.40;;;;;;;16.32;60.13;99906.84;117266;1186;21857;-59
2021/09/19 01:10:19;;;;;;;26.00;23.10;;;;;;;16.35;60.26;99909.91;117232;1182;23542;-59
2021/09/19 01:13:07;;;;;;;25.70;22.80;;;;;;;16.36;60.25;99908.59;117209;1186;21881;-59
2021/09/19 01:15:35;;;;;;;26.50;22.90;;;;;;;16.34;60.26;99910.81;117227;1186;23644;-58
2021/09/19 01:18:17;;;;;;;25.00;22.30;;;;;;;16.36;60.32;99908.79;117286;1188;23560;-58
2021/09/19 01:20:46;;;;;;;27.00;23.60;;;;;;;16.37;60.34;99907.85;117238;1182;23631;-59
2021/09/19 01:23:36;;;;;;;25.90;23.10;;;;;;;16.41;60.05;99905.23;117309;1185;24182;-59
2021/09/19 01:26:07;;;;;;;25.80;23.00;;;;;;;16.35;60.22;99908.82;117232;1182;23567;-59
2021/09/19 01:28:35;;;;;;;25.10;21.80;;;;;;;16.32;60.16;99904.35;118027;1185;23547;-59
2021/09/19 01:31:15;;;;;;;24.10;21.10;;;;;;;16.23;60.15;99907.61;117282;1186;23547;-59
2021/09/19 01:34:03;;;;;;;23.50;20.90;;;;;;;16.11;60.24;99910.04;117255;1183;23587;-59
2021/09/19 01:36:51;;;;;;;23.90;21.10;;;;;;;16.06;60.30;99907.44;117215;1189;22093;-58
2021/09/19 01:39:19;;;;;;;22.70;20.30;;;;;;;16.08;60.22;99908.56;117222;1186;23541;-59
2021/09/19 01:41:48;;;;;;;23.80;21.20;;;;;;;16.08;60.22;99904.19;117294;1185;21860;-59
2021/09/19 01:44:18;;;;;;;24.20;21.30;;;;;;;16.01;60.21;99903.39;117290;1186;24142;-58
2021/09/19 01:46:47;;;;;;;23.70;21.20;;;;;;;15.99;60.22;99900.10;117189;1188;23570;-58
2021/09/19 01:49:15;;;;;;;25.50;22.00;;;;;;;15.97;60.27;99900.36;117244;1186;21858;-58
2021/09/19 01:51:48;;;;;;;26.40;22.20;;;;;;;15.96;60.23;99905.17;117261;1186;23554;-59
2021/09/19 01:54:17;;;;;;;23.00;20.60;;;;;;;15.95;60.17;99908.06;117290;1186;23560;-59
2021/09/19 01:56:51;;;;;;;23.50;21.10;;;;;;;15.88;60.22;99913.27;117296;1185;23556;-62
2021/09/19 01:59:20;;;;;;;26.10;21.90;;;;;;;15.83;60.30;99908.89;117287;1185;23441;-62
2021/09/19 02:01:48;;;;;;;23.70;21.00;;;;;;;15.82;60.35;99907.70;117328;1183;24159;-59
2021/09/19 02:04:39;;;;;;;22.80;20.10;;;;;;;15.83;60.44;99907.84;117193;1186;21874;-62
2021/09/19 02:07:08;;;;;;;23.60;21.10;;;;;;;15.82;60.40;99911.06;117238;1186;23541;-62
2021/09/19 02:09:37;;;;;;;22.50;19.80;;;;;;;15.76;60.44;99917.85;117456;1185;23541;-62
2021/09/19 02:12:06;;;;;;;26.20;20.60;;;;;;;15.69;60.41;99919.68;117289;1185;21849;-62
2021/09/19 02:14:35;;;;;;;22.90;20.60;;;;;;;15.66;60.44;99919.84;117226;1186;23593;-62
2021/09/19 02:17:03;;;;;;;25.30;22.60;;;;;;;15.64;60.52;99919.55;117250;1186;21856;-62
2021/09/19 02:19:51;;;;;;;24.70;22.00;;;;;;;15.62;60.51;99917.52;117248;1189;22894;-62
2021/09/19 02:22:20;;;;;;;27.00;23.10;;;;;;;15.57;60.47;99917.69;117225;1186;23557;-62
2021/09/19 02:24:52;;;;;;;28.60;23.30;;;;;;;15.56;60.45;99916.83;117348;1185;23813;-62
2021/09/19 02:27:20;;;;;;;27.40;23.40;;;;;;;15.56;60.24;99916.52;117246;1182;23711;-62
2021/09/19 02:30:00;;;;;;;26.70;22.70;;;;;;;15.51;60.33;99915.83;117250;1186;23606;-62
2021/09/19 02:32:28;;;;;;;25.40;22.60;;;;;;;15.51;60.31;99915.66;117253;1186;21857;-62
2021/09/19 02:34:56;;;;;;;25.70;23.00;;;;;;;15.53;60.32;99915.75;117301;1185;22472;-62
2021/09/19 02:37:27;;;;;;;28.50;25.20;;;;;;;15.34;60.70;99917.90;117283;1185;23640;-62
2021/09/19 02:39:57;;;;;;;26.80;23.00;;;;;;;15.29;60.91;99921.81;117282;1186;23968;-62
2021/09/19 02:42:25;;;;;;;25.40;22.70;;;;;;;15.42;60.57;99914.93;117271;1185;21861;-62
2021/09/19 02:45:13;;;;;;;26.50;23.00;;;;;;;15.48;60.48;99918.42;117182;1186;22921;-62
2021/09/19 02:47:41;;;;;;;24.90;22.10;;;;;;;15.50;60.50;99922.06;117221;1182;22648;-62
2021/09/19 02:50:11;;;;;;;25.80;23.00;;;;;;;15.55;60.50;99932.65;117319;1186;21897;-62
2021/09/19 02:52:39;;;;;;;26.40;23.60;;;;;;;15.61;60.46;99935.42;117340;1186;21866;-62
2021/09/19 02:55:09;;;;;;;26.60;23.50;;;;;;;15.67;60.40;99935.73;117325;1186;23557;-62
2021/09/19 02:57:37;;;;;;;28.70;24.60;;;;;;;15.65;60.42;99931.73;117301;1183;23621;-62
2021/09/19 03:00:09;;;;;;;25.80;22.90;;;;;;;15.62;60.51;99930.08;117315;1185;23587;-62
2021/09/19 03:02:37;;;;;;;25.10;21.80;;;;;;;15.63;60.39;99926.84;117359;1185;21866;-62
2021/09/19 03:05:07;;;;;;;25.20;22.40;;;;;;;15.61;60.29;99924.44;117271;1185;22646;-62
2021/09/19 03:07:36;;;;;;;26.40;22.10;;;;;;;15.56;60.30;99919.85;117294;1186;21982;-62
2021/09/19 03:10:06;;;;;;;24.70;22.00;;;;;;;15.56;60.26;99921.99;117207;1186;24158;-62
2021/09/19 03:12:34;;;;;;;23.80;21.20;;;;;;;15.57;60.25;99921.05;117290;1189;21858;-62
2021/09/19 03:15:04;;;;;;;26.00;22.40;;;;;;;15.60;60.37;99923.08;117250;1185;24159;-59
2021/09/19 03:17:32;;;;;;;25.20;20.60;;;;;;;15.61;60.30;99925.69;117153;1182;23109;-59
2021/09/19 03:20:05;;;;;;;23.80;21.20;;;;;;;15.61;60.41;99928.17;117169;1186;21858;-59
2021/09/19 03:22:35;;;;;;;24.80;22.10;;;;;;;15.56;60.38;99930.46;117284;1182;23569;-59
2021/09/19 03:25:14;;;;;;;22.70;20.30;;;;;;;15.51;60.35;99930.34;117256;1183;22811;-59
2021/09/19 03:27:42;;;;;;;22.20;19.50;;;;;;;15.47;60.36;99933.14;117258;1188;21956;-59
2021/09/19 03:30:13;;;;;;;21.20;18.60;;;;;;;15.41;60.39;99937.45;117267;1186;23678;-59
2021/09/19 03:32:45;;;;;;;21.90;19.00;;;;;;;15.36;60.51;99936.76;117316;1185;23570;-59
2021/09/19 03:35:13;;;;;;;26.70;20.70;;;;;;;15.41;60.46;99934.42;117286;1186;21855;-59
2021/09/19 03:37:41;;;;;;;30.50;22.10;;;;;;;15.47;60.39;99934.90;117159;1187;22323;-60
2021/09/19 03:40:11;;;;;;;27.00;23.10;;;;;;;15.43;60.59;99938.08;117373;1186;23001;-59
2021/09/19 03:42:39;;;;;;;30.90;23.10;;;;;;;15.49;60.50;99932.19;117373;1186;23461;-59
2021/09/19 03:45:10;;;;;;;28.10;23.10;;;;;;;15.57;60.59;99926.92;117353;1183;21862;-59
2021/09/19 03:47:38;;;;;;;27.10;23.00;;;;;;;15.63;60.68;99928.63;117306;1182;23544;-59
2021/09/19 03:50:07;;;;;;;26.00;23.30;;;;;;;15.70;60.48;99929.56;117343;1183;21878;-59
2021/09/19 03:52:36;;;;;;;27.50;23.50;;;;;;;15.69;60.59;99932.44;117354;1185;24195;-59
2021/09/19 03:55:05;;;;;;;29.50;23.70;;;;;;;15.68;60.44;99931.25;117392;1185;23541;-59
2021/09/19 03:57:33;;;;;;;27.80;23.30;;;;;;;15.67;60.45;99932.17;117367;1182;22640;-59
2021/09/19 04:00:14;;;;;;;30.70;22.40;;;;;;;15.66;60.43;99936.46;117355;1176;22987;-59
2021/09/19 04:02:42;;;;;;;30.20;23.00;;;;;;;15.67;60.49;99935.01;117374;1182;23070;-59
2021/09/19 04:05:12;;;;;;;29.40;23.90;;;;;;;15.66;60.53;99933.47;117321;1186;21850;-59
2021/09/19 04:07:40;;;;;;;28.10;24.30;;;;;;;15.68;60.69;99930.01;117353;1183;21860;-59
2021/09/19 04:10:10;;;;;;;31.50;24.50;;;;;;;15.73;60.75;99934.02;117377;1182;23560;-59
2021/09/19 04:12:39;;;;;;;27.20;24.20;;;;;;;15.79;60.73;99939.65;117372;1183;22919;-59
2021/09/19 04:15:08;;;;;;;34.10;25.90;;;;;;;15.86;60.83;99942.20;117324;1186;21855;-59
2021/09/19 04:17:56;;;;;;;32.20;25.20;;;;;;;15.93;60.94;99940.34;117240;1186;21867;-59
2021/09/19 04:20:28;;;;;;;34.10;27.00;;;;;;;16.00;60.99;99943.43;117282;1189;23544;-59
2021/09/19 04:23:16;;;;;;;29.50;25.70;;;;;;;16.11;61.00;99942.06;117276;1186;22144;-60
2021/09/19 04:25:45;;;;;;;32.40;27.40;;;;;;;16.17;60.85;99942.86;117302;1185;23569;-59
2021/09/19 04:28:21;;;;;;;32.70;27.70;;;;;;;16.25;60.85;99939.88;117275;1186;23557;-59
2021/09/19 04:30:49;;;;;;;41.20;30.40;;;;;;;16.30;60.95;99942.33;117314;1185;22929;-59
2021/09/19 04:33:37;;;;;;;38.40;31.10;;;;;;;16.39;60.96;99938.95;117313;1185;22784;-60
2021/09/19 04:36:08;;;;;;;36.50;29.20;;;;;;;16.47;60.84;99934.72;117350;1185;23542;-62
2021/09/19 04:38:38;;;;;;;38.90;31.20;;;;;;;16.51;61.02;99936.29;117258;1186;23586;-62
2021/09/19 04:41:06;;;;;;;34.60;29.30;;;;;;;16.60;61.09;99932.84;117304;1184;21917;-62
2021/09/19 04:43:34;;;;;;;39.30;30.50;;;;;;;16.71;61.06;99937.91;117273;1185;21858;-63
2021/09/19 04:46:02;;;;;;;35.90;31.10;;;;;;;16.81;61.06;99938.70;117256;1186;23547;-62
2021/09/19 04:48:31;;;;;;;40.90;32.20;;;;;;;16.90;61.10;99937.74;117342;1182;23560;-62
2021/09/19 04:50:59;;;;;;;38.30;32.10;;;;;;;17.01;61.07;99939.23;117327;1185;23547;-63
2021/09/19 04:53:28;;;;;;;38.40;32.50;;;;;;;17.03;61.00;99941.59;117335;1186;24141;-63
2021/09/19 04:55:57;;;;;;;36.30;30.10;;;;;;;17.11;61.13;99937.17;117288;1186;23547;-62
2021/09/19 04:58:25;;;;;;;39.30;31.60;;;;;;;17.20;61.11;99941.52;117319;1186;23566;-62
2021/09/19 05:00:53;;;;;;;34.90;29.50;;;;;;;17.28;61.12;99944.20;117253;1185;21875;-62
2021/09/19 05:03:22;;;;;;;40.20;31.60;;;;;;;17.34;61.12;99947.83;117300;1185;23627;-62
2021/09/19 05:05:51;;;;;;;34.30;29.30;;;;;;;17.44;61.07;99950.73;117226;1184;24152;-62
2021/09/19 05:08:21;;;;;;;33.60;28.30;;;;;;;17.49;61.13;99952.93;117156;1184;21865;-62
2021/09/19 05:10:52;;;;;;;30.20;26.60;;;;;;;17.56;61.17;99954.05;117220;1184;23545;-63
2021/09/19 05:13:22;;;;;;;30.70;27.20;;;;;;;17.57;61.41;99955.09;117317;1186;21861;-62
2021/09/19 05:15:50;;;;;;;37.40;29.10;;;;;;;17.55;61.56;99953.17;117317;1186;21866;-62
2021/09/19 05:18:21;;;;;;;33.30;28.60;;;;;;;17.62;61.57;99952.50;117268;1186;23569;-63
2021/09/19 05:20:49;;;;;;;32.00;26.70;;;;;;;17.67;61.61;99953.83;117300;1185;21858;-63
2021/09/19 05:23:18;;;;;;;31.20;26.30;;;;;;;17.74;61.70;99954.40;117340;1183;22619;-62
2021/09/19 05:25:48;;;;;;;26.50;23.50;;;;;;;17.82;61.65;99952.41;117293;1186;23617;-68
2021/09/19 05:28:16;;;;;;;27.50;24.40;;;;;;;17.92;61.67;99949.80;117349;1186;23542;-68
2021/09/19 05:30:44;;;;;;;25.50;22.90;;;;;;;18.09;61.80;99949.34;117288;1186;23546;-68
2021/09/19 05:33:12;;;;;;;24.30;21.70;;;;;;;18.25;61.75;99946.42;117257;1184;21865;-68
2021/09/19 05:35:40;;;;;;;23.80;21.30;;;;;;;18.37;61.85;99953.64;117419;1185;23556;-68
2021/09/19 05:38:08;;;;;;;23.20;20.80;;;;;;;18.49;61.72;99955.47;117233;1185;21845;-67
2021/09/19 05:40:36;;;;;;;23.90;20.80;;;;;;;18.58;61.87;99956.09;117282;1186;21873;-68
2021/09/19 05:43:05;;;;;;;23.00;20.10;;;;;;;18.66;61.92;99953.17;117266;1189;21937;-68
2021/09/19 05:45:33;;;;;;;24.60;19.50;;;;;;;18.74;61.85;99949.91;117336;1184;23560;-72
2021/09/19 05:48:01;;;;;;;25.20;20.00;;;;;;;18.85;61.81;99953.59;117233;1182;21857;-64
2021/09/19 05:50:49;;;;;;;23.40;18.60;;;;;;;18.90;61.61;99952.65;117263;1181;22900;-62
2021/09/19 05:53:18;;;;;;;22.50;19.20;;;;;;;18.93;61.69;99955.17;117147;1186;23567;-63
2021/09/19 05:55:52;;;;;;;20.90;18.70;;;;;;;19.00;61.72;99948.40;117231;1183;23579;-62
2021/09/19 05:58:21;;;;;;;20.60;17.90;;;;;;;19.10;61.73;99950.71;117208;1186;21988;-63
2021/09/19 06:01:11;;;;;;;19.70;17.50;;;;;;;19.19;61.90;99943.12;117197;1185;21853;-62
2021/09/19 06:03:42;;;;;;;18.30;16.30;;;;;;;19.34;61.99;99946.90;117237;1179;23462;-63
2021/09/19 06:06:13;;;;;;;18.30;16.10;;;;;;;19.45;61.96;99945.74;116969;1186;24134;-63
2021/09/19 06:08:42;;;;;;;16.70;14.80;;;;;;;19.60;61.99;99946.90;117291;1186;21901;-63
2021/09/19 06:11:11;;;;;;;17.30;15.50;;;;;;;19.73;61.97;99950.61;117535;1185;22641;-63
2021/09/19 06:13:59;;;;;;;17.40;14.10;;;;;;;19.92;61.89;99952.38;117160;1185;21863;-63
2021/09/19 06:16:29;;;;;;;15.20;13.60;;;;;;;20.08;61.97;99954.31;117162;1186;23544;-63
2021/09/19 06:19:13;;;;;;;17.60;13.40;;;;;;;20.20;61.92;99951.48;116920;1183;23548;-63
2021/09/19 06:21:45;;;;;;;15.60;13.80;;;;;;;20.33;61.75;99954.08;117261;1183;23697;-63
2021/09/19 06:24:17;;;;;;;14.20;12.80;;;;;;;20.43;61.77;99949.59;117298;1184;23566;-64
2021/09/19 06:27:05;;;;;;;14.60;13.10;;;;;;;20.54;61.78;99946.62;117292;1189;21856;-63
2021/09/19 06:29:33;;;;;;;14.90;13.20;;;;;;;20.61;61.77;99948.33;117369;1185;21867;-57
2021/09/19 06:32:02;;;;;;;16.70;13.80;;;;;;;20.73;61.77;99951.86;117286;1185;23546;-57
2021/09/19 06:34:40;;;;;;;14.40;12.80;;;;;;;20.82;61.71;99949.91;117240;1182;23547;-58
2021/09/19 06:37:08;;;;;;;14.70;13.20;;;;;;;20.93;61.84;99947.80;117244;1186;22963;-58
2021/09/19 06:39:36;;;;;;;14.10;12.60;;;;;;;21.05;61.90;99948.11;117188;1182;23548;-57
2021/09/19 06:42:18;;;;;;;12.10;10.80;;;;;;;21.17;61.93;99949.70;117239;1182;23570;-58
2021/09/19 06:44:47;;;;;;;14.00;11.50;;;;;;;21.28;62.11;99947.77;117326;1183;21857;-57
2021/09/19 06:47:20;;;;;;;14.70;11.10;;;;;;;21.34;62.18;99948.61;117289;1182;23543;-57
2021/09/19 06:49:49;;;;;;;15.70;10.80;;;;;;;21.42;62.32;99944.58;117315;1183;23552;-57
2021/09/19 06:52:18;;;;;;;11.40;10.20;;;;;;;21.55;62.46;99941.40;117250;1185;22639;-57
2021/09/19 06:54:47;;;;;;;12.50;11.00;;;;;;;21.77;62.32;99943.19;117229;1184;21945;-57
2021/09/19 06:57:17;;;;;;;12.20;10.80;;;;;;;21.92;62.17;99938.30;117103;1186;21846;-57
2021/09/19 06:59:46;;;;;;;13.00;10.60;;;;;;;22.09;62.28;99938.20;117303;1185;24005;-58
2021/09/19 07:02:14;;;;;;;12.60;11.30;;;;;;;22.29;62.46;99936.17;117215;1184;21866;-57
2021/09/19 07:04:43;;;;;;;10.90;9.80;;;;;;;22.49;62.40;99938.02;117197;1183;22167;-58
2021/09/19 07:07:14;;;;;;;9.70;8.10;;;;;;;22.54;62.52;99939.13;117257;1184;23583;-57
2021/09/19 07:09:43;;;;;;;8.70;6.80;;;;;;;22.65;62.66;99936.43;117104;1182;21868;-57
2021/09/19 07:12:11;;;;;;;8.40;7.60;;;;;;;22.82;62.75;99935.56;117211;1185;23564;-57
2021/09/19 07:14:40;;;;;;;8.70;7.30;;;;;;;23.06;62.67;99931.91;117307;1186;23545;-58
2021/09/19 07:17:18;;;;;;;8.30;6.90;;;;;;;23.36;62.95;99931.04;117268;1183;23672;-58
2021/09/19 07:19:46;;;;;;;7.20;5.40;;;;;;;23.62;62.84;99922.56;117251;1183;21884;-57
2021/09/19 07:22:24;;;;;;;6.90;5.70;;;;;;;23.81;62.86;99920.95;117306;1183;23554;-57
2021/09/19 07:24:52;;;;;;;6.80;5.60;;;;;;;24.04;62.90;99920.84;117092;1188;23567;-58
2021/09/19 07:27:21;;;;;;;5.60;5.00;;;;;;;24.36;62.66;99921.33;117305;1182;23543;-58
2021/09/19 07:29:49;;;;;;;5.40;4.40;;;;;;;24.51;62.49;99921.20;117287;1185;23666;-58
2021/09/19 07:32:18;;;;;;;5.30;4.40;;;;;;;24.60;62.30;99919.25;117275;1185;21867;-58
2021/09/19 07:34:46;;;;;;;8.50;4.30;;;;;;;24.74;62.41;99916.78;117362;1185;21858;-58
2021/09/19 07:37:16;;;;;;;4.60;3.80;;;;;;;24.89;62.42;99917.58;117343;1183;23636;-58
2021/09/19 07:39:45;;;;;;;5.30;3.90;;;;;;;25.07;62.35;99919.00;117294;1186;21867;-58
2021/09/19 07:42:14;;;;;;;5.60;3.10;;;;;;;25.22;62.27;99917.08;117320;1185;21902;-58
2021/09/19 07:44:42;;;;;;;5.20;3.50;;;;;;;25.29;62.38;99918.13;117332;1185;23648;-58
2021/09/19 07:47:10;;;;;;;5.30;3.50;;;;;;;25.37;62.43;99917.27;117360;1188;21872;-58
2021/09/19 07:49:40;;;;;;;5.30;4.30;;;;;;;25.43;62.27;99913.23;117351;1186;22921;-58
2021/09/19 07:52:09;;;;;;;4.70;4.00;;;;;;;25.47;62.17;99910.23;117383;1180;22953;-58
2021/09/19 07:54:37;;;;;;;5.50;3.90;;;;;;;25.53;62.19;99911.93;117260;1182;22914;-58
2021/09/19 07:57:06;;;;;;;4.70;3.50;;;;;;;25.52;62.33;99908.38;117339;1182;23541;-59
2021/09/19 07:59:34;;;;;;;4.20;3.40;;;;;;;25.62;62.22;99907.20;117355;1185;21871;-59
2021/09/19 08:02:03;;;;;;;4.90;4.20;;;;;;;25.75;62.23;99910.66;117288;1184;21853;-59
2021/09/19 08:04:31;;;;;;;6.20;3.70;;;;;;;25.82;62.33;99907.20;117271;1186;23462;-59
2021/09/19 08:06:59;;;;;;;4.30;3.60;;;;;;;25.91;62.32;99907.69;117279;1186;21857;-59
2021/09/19 08:09:28;;;;;;;7.10;4.20;;;;;;;26.03;62.34;99907.92;117288;1182;23556;-59
2021/09/19 08:11:56;;;;;;;5.10;4.00;;;;;;;26.13;62.30;99904.02;117349;1184;21866;-59
2021/09/19 08:14:25;;;;;;;4.30;3.20;;;;;;;26.28;62.11;99898.86;117308;1181;22921;-59
2021/09/19 08:16:53;;;;;;;3.40;2.60;;;;;;;26.40;62.17;99901.19;117197;1186;23547;-58
2021/09/19 08:19:25;;;;;;;3.50;2.90;;;;;;;26.55;62.09;99901.23;117323;1186;23682;-58
2021/09/19 08:21:54;;;;;;;5.10;3.10;;;;;;;26.63;62.06;99898.86;117374;1185;21856;-59
2021/09/19 08:24:23;;;;;;;4.20;3.00;;;;;;;26.73;62.19;99896.20;117356;1183;23590;-59
2021/09/19 08:26:52;;;;;;;5.20;3.00;;;;;;;26.81;62.28;99895.00;117317;1182;23585;-59
2021/09/19 08:29:21;;;;;;;4.60;3.10;;;;;;;26.85;62.48;99890.85;117320;1186;23544;-58
2021/09/19 08:32:10;;;;;;;3.30;2.70;;;;;;;26.91;62.29;99889.30;117271;1186;23698;-59
2021/09/19 08:34:46;;;;;;;3.80;3.00;;;;;;;26.89;62.35;99886.89;117258;1186;23589;-59
2021/09/19 08:37:15;;;;;;;5.00;3.20;;;;;;;26.92;62.29;99884.69;117306;1182;23542;-59
2021/09/19 08:39:44;;;;;;;4.10;3.10;;;;;;;26.96;62.42;99877.98;117328;1185;23026;-59
2021/09/19 08:42:13;;;;;;;4.30;3.30;;;;;;;27.06;62.47;99871.41;117334;1185;23729;-59
2021/09/19 08:44:43;;;;;;;5.40;3.30;;;;;;;27.24;62.39;99876.95;117267;1189;21830;-59
2021/09/19 08:47:12;;;;;;;5.00;2.90;;;;;;;27.39;62.14;99876.51;117348;1188;23531;-64
2021/09/19 08:49:43;;;;;;;4.60;2.80;;;;;;;27.44;61.93;99874.41;117319;1186;21898;-64
2021/09/19 08:52:12;;;;;;;5.10;2.60;;;;;;;27.37;61.62;99871.33;117316;1185;22976;-64
2021/09/19 08:54:41;;;;;;;4.10;2.70;;;;;;;27.16;61.54;99864.77;117354;1186;21857;-64
2021/09/19 08:57:11;;;;;;;4.90;2.90;;;;;;;26.97;61.41;99863.02;117303;1182;21908;-64
2021/09/19 08:59:53;;;;;;;4.40;2.90;;;;;;;26.87;61.65;99859.91;117413;1184;22916;-60
2021/09/19 09:02:21;;;;;;;4.80;2.90;;;;;;;26.89;61.98;99860.27;117335;1184;21875;-59
2021/09/19 09:04:54;;;;;;;3.10;2.40;;;;;;;27.00;62.17;99851.88;117348;1183;21867;-59
2021/09/19 09:07:24;;;;;;;4.10;2.40;;;;;;;27.15;62.11;99850.45;117324;1183;22941;-59
2021/09/19 09:09:56;;;;;;;6.60;2.80;;;;;;;27.22;62.11;99848.14;117210;1186;21858;-59
2021/09/19 09:12:34;;;;;;;3.20;2.60;;;;;;;27.35;62.15;99845.40;117298;1176;23566;-59
2021/09/19 09:15:05;;;;;;;3.60;2.80;;;;;;;27.52;62.04;99843.06;117358;1184;23627;-59
2021/09/19 09:17:33;;;;;;;3.20;2.70;;;;;;;27.68;61.84;99843.03;117304;1182;23560;-59
2021/09/19 09:20:03;;;;;;;4.10;2.40;;;;;;;27.76;61.95;99836.95;117212;1186;22936;-59
2021/09/19 09:22:38;;;;;;;3.50;2.70;;;;;;;27.84;61.82;99836.56;117277;1176;24016;-59
2021/09/19 09:25:10;;;;;;;4.50;2.20;;;;;;;27.96;61.80;99827.67;117307;1186;21854;-59
2021/09/19 09:27:48;;;;;;;4.40;2.20;;;;;;;28.00;61.83;99826.27;117314;1182;23448;-59
2021/09/19 09:30:23;;;;;;;2.80;2.30;;;;;;;28.02;61.77;99829.48;117193;1185;21858;-58
2021/09/19 09:33:02;;;;;;;3.00;2.60;;;;;;;28.06;61.63;99836.66;117211;1184;22833;-58
2021/09/19 09:35:43;;;;;;;4.20;2.10;;;;;;;28.04;61.81;99832.72;117257;1184;21858;-59
2021/09/19 09:38:22;;;;;;;9.50;2.70;;;;;;;28.22;62.05;99831.75;117334;1186;23542;-59
2021/09/19 09:40:51;;;;;;;3.30;2.20;;;;;;;28.43;61.96;99831.21;117322;1183;22831;-58
2021/09/19 09:43:19;;;;;;;2.60;2.00;;;;;;;28.56;61.76;99829.41;117295;1183;21864;-59
2021/09/19 09:45:53;;;;;;;5.10;2.40;;;;;;;28.64;61.62;99834.80;117304;1183;23591;-59
2021/09/19 09:48:27;;;;;;;5.00;2.40;;;;;;;28.54;61.13;99837.06;117269;1183;23547;-59
2021/09/19 09:50:59;;;;;;;6.30;2.70;;;;;;;28.31;61.00;99836.45;117329;1183;22732;-58
2021/09/19 09:53:28;;;;;;;;;;;;;;;28.08;61.13;99838.09;117217;1186;21842;-59
2021/09/19 09:55:59;;;;;;;4.10;1.80;;;;;;;27.89;60.96;99838.61;117302;1182;23592;-59
2021/09/19 09:58:27;;;;;;;5.30;2.00;;;;;;;27.78;61.22;99835.38;117296;1184;21856;-59
2021/09/19 10:00:57;;;;;;;2.00;1.60;;;;;;;27.76;61.38;99831.90;117226;1186;24169;-63
2021/09/19 10:03:26;;;;;;;3.40;2.00;;;;;;;27.70;61.09;99830.31;117344;1185;21898;-64
2021/09/19 10:05:55;;;;;;;2.70;1.70;;;;;;;27.55;60.93;99835.82;117370;1183;24702;-64
2021/09/19 10:08:51;;;;;;;3.20;1.80;;;;;;;27.44;61.00;99833.58;116897;1186;23579;-64
2021/09/19 10:11:22;;;;;;;3.20;2.00;;;;;;;27.36;60.97;99834.62;117025;1185;21859;-64
2021/09/19 10:13:50;;;;;;;7.10;2.70;;;;;;;27.27;61.01;99835.78;117329;1185;21860;-64
2021/09/19 10:16:38;;;;;;;3.30;2.20;;;;;;;27.26;61.40;99825.80;117014;1184;21867;-62
2021/09/19 10:19:07;;;;;;;4.40;2.20;;;;;;;27.38;61.57;99827.05;117290;1185;23543;-63
2021/09/19 10:21:57;;;;;;;3.60;1.50;;;;;;;27.57;61.83;99827.54;116937;1186;21976;-63
2021/09/19 10:24:26;;;;;;;3.90;1.40;;;;;;;27.75;61.87;99827.66;117066;1185;21902;-64
2021/09/19 10:26:56;;;;;;;2.90;1.20;;;;;;;27.99;61.83;99817.33;117381;1185;22000;-64
2021/09/19 10:29:42;;;;;;;5.80;1.50;;;;;;;28.26;61.84;99815.36;117227;1185;23567;-64
2021/09/19 10:32:37;;;;;;;3.10;1.50;;;;;;;28.57;61.83;99815.24;117063;1186;23235;-63
2021/09/19 10:35:18;;;;;;;8.30;1.70;;;;;;;28.81;61.76;99814.27;117289;1184;22793;-63
2021/09/19 10:37:55;;;;;;;2.50;1.30;;;;;;;28.85;61.63;99812.88;117283;1181;23556;-63
2021/09/19 10:40:41;;;;;;;1.70;1.20;;;;;;;28.97;61.64;99807.11;117396;1184;21901;-62
2021/09/19 10:43:21;;;;;;;2.60;1.40;;;;;;;29.19;61.76;99806.33;117325;1185;23557;-63
2021/09/19 10:45:52;;;;;;;3.90;1.80;;;;;;;29.45;61.69;99807.71;117159;1188;22863;-64
2021/09/19 10:48:28;;;;;;;1.60;1.10;;;;;;;29.68;61.64;99804.73;117290;1180;22915;-64
2021/09/19 10:51:02;;;;;;;2.70;1.70;;;;;;;29.82;61.28;99800.98;117385;1184;22622;-64
2021/09/19 10:53:47;;;;;;;3.50;1.50;;;;;;;29.86;61.04;99800.00;117282;1185;23579;-63
2021/09/19 10:56:57;;;;;;;2.40;1.60;;;;;;;29.83;60.90;99797.85;117250;1185;21860;-63
2021/09/19 10:59:29;;;;;;;3.30;1.80;;;;;;;29.90;60.97;99794.84;117243;1185;22988;-63
2021/09/19 11:02:04;;;;;;;2.70;1.80;;;;;;;30.04;61.10;99795.30;117266;1183;23551;-63
2021/09/19 11:04:33;;;;;;;2.40;1.80;;;;;;;30.16;61.22;99797.34;117285;1183;21885;-64
2021/09/19 11:07:21;;;;;;;2.80;1.40;;;;;;;30.18;60.91;99793.30;117222;1184;21867;-63
2021/09/19 11:09:50;;;;;;;3.70;2.10;;;;;;;30.15;60.77;99799.95;117317;1186;23544;-64
2021/09/19 11:12:18;;;;;;;2.50;1.50;;;;;;;29.96;60.59;99795.71;117361;1182;21855;-64
2021/09/19 11:15:07;;;;;;;4.70;2.00;;;;;;;29.79;60.16;99791.95;117284;1186;23528;-64
2021/09/19 11:17:48;;;;;;;2.50;1.60;;;;;;;29.61;60.13;99794.73;117395;1182;24157;-64
2021/09/19 11:20:33;;;;;;;7.00;2.10;;;;;;;29.45;59.56;99791.69;117062;1182;23548;-64
2021/09/19 11:23:21;;;;;;;;;;;;;;;29.22;59.71;99788.48;117227;1186;22816;-61
2021/09/19 11:25:49;;;;;;;2.80;1.80;;;;;;;28.98;59.52;99781.84;117115;1184;21871;-62
2021/09/19 11:28:34;;;;;;;2.60;1.60;;;;;;;28.72;59.44;99781.16;117175;1185;23569;-61
2021/09/19 11:31:22;;;;;;;4.90;1.80;;;;;;;28.46;59.43;99779.65;117211;1188;22903;-62
2021/09/19 11:34:16;;;;;;;4.20;1.80;;;;;;;28.02;60.16;99784.59;117294;1185;22009;-63
2021/09/19 11:36:46;;;;;;;4.00;1.80;;;;;;;27.76;60.21;99783.23;117304;1182;21871;-64
2021/09/19 11:39:15;;;;;;;3.90;1.50;;;;;;;27.59;60.34;99783.56;117319;1185;22919;-64
2021/09/19 11:41:44;;;;;;;3.40;1.70;;;;;;;27.41;60.33;99783.39;117328;1186;21865;-63